createdAt,value
2019-05-01T00:03:06.971Z,35.60
2019-05-01T00:06:11.741Z,36.20
2019-05-01T00:09:16.793Z,36.95
2019-05-01T00:12:21.289Z,35.80
2019-05-01T00:15:28.642Z,32.42
2019-05-01T00:18:32.808Z,32.35
2019-05-01T00:21:37.117Z,34.63
2019-05-01T00:24:41.381Z,35.33
2019-05-01T00:27:45.614Z,37.73
2019-05-01T00:30:49.827Z,37.60
2019-05-01T00:33:54.052Z,34.15
2019-05-01T00:36:58.271Z,32.38
2019-05-01T00:40:02.761Z,32.95
2019-05-01T00:43:07.028Z,31.07
2019-05-01T00:46:11.310Z,30.60
2019-05-01T00:49:15.617Z,30.68
2019-05-01T00:52:19.989Z,32.03
2019-05-01T00:55:58.396Z,31.95
2019-05-01T00:59:10.790Z,29.77
2019-05-01T01:02:35.451Z,31.68
2019-05-01T01:05:39.799Z,35.55
2019-05-01T01:08:44.023Z,33.08
2019-05-01T01:11:48.608Z,33.92
2019-05-01T01:14:52.795Z,29.12
2019-05-01T01:17:57.133Z,25.65
2019-05-01T01:21:01.402Z,28.90
2019-05-01T01:24:05.866Z,29.27
2019-05-01T01:27:10.134Z,31.70
2019-05-01T01:30:14.944Z,32.38
2019-05-01T01:33:19.432Z,33.23
2019-05-01T01:36:23.731Z,34.40
2019-05-01T01:39:27.904Z,32.38
2019-05-01T01:42:32.498Z,32.80
2019-05-01T01:45:45.283Z,35.92
2019-05-01T01:51:52.958Z,35.73
2019-05-01T01:54:57.366Z,31.12
2019-05-01T01:58:01.566Z,31.52
2019-05-01T02:01:28.009Z,31.85
2019-05-01T02:04:46.070Z,30.37
2019-05-01T02:07:50.373Z,34.48
2019-05-01T02:10:54.766Z,31.07
2019-05-01T02:13:59.153Z,34.90
2019-05-01T02:17:03.422Z,35.65
2019-05-01T02:20:08.659Z,34.90
2019-05-01T02:23:12.874Z,32.75
2019-05-01T02:26:19.718Z,33.42
2019-05-01T02:29:30.182Z,32.50
2019-05-01T02:32:35.443Z,32.73
2019-05-01T02:35:39.944Z,32.93
2019-05-01T02:38:47.146Z,32.30
2019-05-01T02:41:52.963Z,34.50
2019-05-01T02:44:59.266Z,33.35
2019-05-01T02:48:04.671Z,33.05
2019-05-01T02:51:10.590Z,33.10
2019-05-01T02:54:17.637Z,33.53
2019-05-01T02:57:24.623Z,33.35
2019-05-01T03:00:29.395Z,35.58
2019-05-01T03:03:33.718Z,37.03
2019-05-01T03:06:38.771Z,35.95
2019-05-01T03:09:43.609Z,36.93
2019-05-01T03:12:50.125Z,35.75
2019-05-01T03:15:54.849Z,33.63
2019-05-01T03:19:01.397Z,33.28
2019-05-01T03:22:12.009Z,32.78
2019-05-01T03:25:16.621Z,33.90
2019-05-01T03:28:21.217Z,33.42
2019-05-01T03:31:25.481Z,35.23
2019-05-01T03:34:29.722Z,35.30
2019-05-01T03:37:34.295Z,35.80
2019-05-01T03:40:38.743Z,34.53
2019-05-01T03:43:43.018Z,36.83
2019-05-01T03:46:48.116Z,36.17
2019-05-01T03:49:52.483Z,34.98
2019-05-01T03:52:56.742Z,37.58
2019-05-01T03:56:01.613Z,34.80
2019-05-01T03:59:06.027Z,34.30
2019-05-01T04:02:33.026Z,35.28
2019-05-01T04:05:24.731Z,36.28
2019-05-01T04:08:29.246Z,36.03
2019-05-01T04:11:33.678Z,36.55
2019-05-01T04:14:39.393Z,33.10
2019-05-01T04:18:04.653Z,33.67
2019-05-01T04:21:09.984Z,27.58
2019-05-01T04:24:14.499Z,18.95
2019-05-01T04:27:26.958Z,15.72
2019-05-01T04:30:50.711Z,17.42
2019-05-01T04:33:56.920Z,15.30
2019-05-01T04:37:03.389Z,19.85
2019-05-01T04:40:07.836Z,21.77
2019-05-01T04:43:14.935Z,23.55
2019-05-01T04:46:19.577Z,27.32
2019-05-01T04:49:23.888Z,28.45
2019-05-01T04:52:28.176Z,31.15
2019-05-01T04:55:33.138Z,30.55
2019-05-01T04:58:56.397Z,32.33
2019-05-01T05:02:03.017Z,31.52
2019-05-01T05:05:08.043Z,30.45
2019-05-01T05:08:12.506Z,33.10
2019-05-01T05:11:22.595Z,34.13
2019-05-01T05:14:31.507Z,35.98
2019-05-01T05:17:36.387Z,35.73
2019-05-01T05:20:41.219Z,35.13
2019-05-01T05:23:45.676Z,38.92
2019-05-01T05:26:51.008Z,40.67
2019-05-01T05:29:57.405Z,37.55
2019-05-01T05:33:17.196Z,36.42
2019-05-01T05:36:12.019Z,40.08
2019-05-01T05:39:27.378Z,38.85
2019-05-01T05:42:31.789Z,39.85
2019-05-01T05:45:36.117Z,41.42
2019-05-01T05:48:40.775Z,39.88
2019-05-01T05:52:15.866Z,39.15
2019-05-01T05:55:47.544Z,38.53
2019-05-01T05:58:57.641Z,38.60
2019-05-01T06:02:22.293Z,39.08
2019-05-01T06:05:48.928Z,41.18
2019-05-01T06:08:56.648Z,41.00
2019-05-01T06:12:14.267Z,38.70
2019-05-01T06:15:41.193Z,39.48
2019-05-01T06:18:53.864Z,39.27
2019-05-01T06:22:11.618Z,39.30
2019-05-01T06:25:24.828Z,39.13
2019-05-01T06:28:29.660Z,41.28
2019-05-01T06:31:35.497Z,40.80
2019-05-01T06:34:40.068Z,40.48
2019-05-01T06:38:12.824Z,42.98
2019-05-01T06:41:19.150Z,41.00
2019-05-01T06:44:44.218Z,38.23
2019-05-01T06:47:52.635Z,39.50
2019-05-01T06:51:19.114Z,41.25
2019-05-01T06:54:26.081Z,39.98
2019-05-01T06:57:31.142Z,38.92
2019-05-01T07:00:39.100Z,40.60
2019-05-01T07:03:46.934Z,40.88
2019-05-01T07:06:49.804Z,38.63
2019-05-01T07:09:56.440Z,38.53
2019-05-01T07:13:04.980Z,38.58
2019-05-01T07:16:08.950Z,39.58
2019-05-01T07:19:13.794Z,36.73
2019-05-01T07:22:18.837Z,37.55
2019-05-01T07:25:23.086Z,36.17
2019-05-01T07:28:34.044Z,36.63
2019-05-01T07:31:35.112Z,36.00
2019-05-01T07:34:39.799Z,37.93
2019-05-01T07:37:44.465Z,36.58
2019-05-01T07:40:49.358Z,36.15
2019-05-01T07:44:13.270Z,38.50
2019-05-01T07:47:39.645Z,36.48
2019-05-01T07:50:43.910Z,35.92
2019-05-01T07:53:49.032Z,40.60
2019-05-01T07:56:53.948Z,43.83
2019-05-01T08:00:03.568Z,42.38
2019-05-01T08:03:07.289Z,41.95
2019-05-01T08:06:10.895Z,41.63
2019-05-01T08:09:16.279Z,41.40
2019-05-01T08:12:24.065Z,42.05
2019-05-01T08:15:30.388Z,41.48
2019-05-01T08:18:50.290Z,43.33
2019-05-01T08:22:01.703Z,42.75
2019-05-01T08:25:07.409Z,41.68
2019-05-01T08:28:23.006Z,43.70
2019-05-01T08:31:33.688Z,41.83
2019-05-01T08:34:48.503Z,42.13
2019-05-01T08:37:44.279Z,41.58
2019-05-01T08:40:50.816Z,42.60
2019-05-01T08:43:55.955Z,41.65
2019-05-01T08:47:25.883Z,43.73
2019-05-01T08:50:29.626Z,44.73
2019-05-01T08:53:33.922Z,43.38
2019-05-01T08:56:38.196Z,45.45
2019-05-01T08:59:42.548Z,44.45
2019-05-01T09:02:46.905Z,43.83
2019-05-01T09:05:52.213Z,47.10
2019-05-01T09:08:57.438Z,46.37
2019-05-01T09:12:01.796Z,46.42
2019-05-01T09:15:07.158Z,45.25
2019-05-01T09:18:12.783Z,45.30
2019-05-01T09:21:17.183Z,45.63
2019-05-01T09:24:23.133Z,45.40
2019-05-01T09:27:46.812Z,46.65
2019-05-01T09:31:01.585Z,46.33
2019-05-01T09:34:01.036Z,47.50
2019-05-01T09:37:05.887Z,47.53
2019-05-01T09:40:10.567Z,47.33
2019-05-01T09:43:14.785Z,47.78
2019-05-01T09:46:19.123Z,48.25
2019-05-01T09:49:23.406Z,47.55
2019-05-01T09:52:49.862Z,47.40
2019-05-01T09:56:07.781Z,47.00
2019-05-01T09:59:12.685Z,49.45
2019-05-01T10:02:16.751Z,48.20
2019-05-01T10:05:28.705Z,47.60
2019-05-01T10:08:27.185Z,50.10
2019-05-01T10:11:31.609Z,49.20
2019-05-01T10:14:36.358Z,49.15
2019-05-01T10:17:41.827Z,50.67
2019-05-01T10:20:46.123Z,51.02
2019-05-01T10:23:51.671Z,50.38
2019-05-01T10:27:00.202Z,50.55
2019-05-01T10:31:00.741Z,50.40
2019-05-01T10:34:15.753Z,51.20
2019-05-01T10:37:20.256Z,50.50
2019-05-01T10:40:27.054Z,49.98
2019-05-01T10:43:30.604Z,51.68
2019-05-01T10:46:34.870Z,50.88
2019-05-01T10:49:39.107Z,53.17
2019-05-01T10:52:43.386Z,54.03
2019-05-01T10:55:47.718Z,53.28
2019-05-01T10:58:52.135Z,55.17
2019-05-01T11:01:59.055Z,54.90
2019-05-01T11:05:03.303Z,53.50
2019-05-01T11:08:07.645Z,54.80
2019-05-01T11:11:11.959Z,55.20
2019-05-01T11:14:16.377Z,52.98
2019-05-01T11:17:20.766Z,55.23
2019-05-01T11:20:25.000Z,54.42
2019-05-01T11:23:29.383Z,56.18
2019-05-01T11:29:38.516Z,57.20
2019-05-01T11:32:55.775Z,57.00
2019-05-01T11:36:19.095Z,58.13
2019-05-01T11:39:35.834Z,58.28
2019-05-01T11:42:39.252Z,56.33
2019-05-01T11:45:43.548Z,57.05
2019-05-01T11:48:48.044Z,56.50
2019-05-01T11:51:52.248Z,55.52
2019-05-01T11:54:56.513Z,56.85
2019-05-01T11:58:00.780Z,58.10
2019-05-01T12:01:06.141Z,57.88
2019-05-01T12:04:10.366Z,58.28
2019-05-01T12:07:14.636Z,57.38
2019-05-01T12:10:19.995Z,56.80
2019-05-01T12:13:24.290Z,54.95
2019-05-01T12:16:46.135Z,56.68
2019-05-01T12:19:50.576Z,55.55
2019-05-01T12:22:54.873Z,56.77
2019-05-01T12:26:00.667Z,54.93
2019-05-01T12:29:04.887Z,54.88
2019-05-01T12:32:09.209Z,57.50
2019-05-01T12:35:13.394Z,56.25
2019-05-01T12:38:17.690Z,57.73
2019-05-01T12:41:53.236Z,55.85
2019-05-01T12:44:57.634Z,56.68
2019-05-01T12:48:04.775Z,54.40
2019-05-01T12:51:09.578Z,55.83
2019-05-01T12:54:24.038Z,56.42
2019-05-01T12:57:28.358Z,56.60
2019-05-01T13:00:41.728Z,54.48
2019-05-01T13:03:46.078Z,53.50
2019-05-01T13:06:53.279Z,54.00
2019-05-01T13:09:57.537Z,54.67
2019-05-01T13:13:01.731Z,54.83
2019-05-01T13:16:06.202Z,55.58
2019-05-01T13:19:10.497Z,55.52
2019-05-01T13:22:14.800Z,53.52
2019-05-01T13:25:19.069Z,54.30
2019-05-01T13:28:40.032Z,55.03
2019-05-01T13:31:48.466Z,57.23
2019-05-01T13:34:52.769Z,55.38
2019-05-01T13:37:57.048Z,57.33
2019-05-01T13:41:01.310Z,57.53
2019-05-01T13:44:05.601Z,57.60
2019-05-01T13:47:09.873Z,58.02
2019-05-01T13:50:14.537Z,57.98
2019-05-01T13:53:18.876Z,57.35
2019-05-01T13:56:23.114Z,57.58
2019-05-01T13:59:27.343Z,56.58
2019-05-01T14:02:31.642Z,56.90
2019-05-01T14:05:35.875Z,57.23
2019-05-01T14:08:40.222Z,57.62
2019-05-01T14:11:44.645Z,56.42
2019-05-01T14:14:48.941Z,54.60
2019-05-01T14:17:53.202Z,56.08
2019-05-01T14:21:19.504Z,53.45
2019-05-01T14:24:36.903Z,54.08
2019-05-01T14:27:41.401Z,55.15
2019-05-01T14:30:45.816Z,56.40
2019-05-01T14:33:50.010Z,52.55
2019-05-01T14:36:54.321Z,52.95
2019-05-01T14:39:58.643Z,54.58
2019-05-01T14:43:02.954Z,53.70
2019-05-01T14:46:07.260Z,54.70
2019-05-01T14:49:11.599Z,53.00
2019-05-01T14:52:15.993Z,52.78
2019-05-01T14:55:20.627Z,53.10
2019-05-01T14:58:25.098Z,53.45
2019-05-01T15:01:29.359Z,54.35
2019-05-01T15:04:34.229Z,53.08
2019-05-01T15:07:43.616Z,53.63
2019-05-01T15:10:44.502Z,53.63
2019-05-01T15:14:03.638Z,52.85
2019-05-01T15:17:13.458Z,53.02
2019-05-01T15:20:17.902Z,51.13
2019-05-01T15:23:22.150Z,64.72
2019-05-01T15:26:26.500Z,65.25
2019-05-01T15:29:30.929Z,66.00
2019-05-01T15:32:35.179Z,63.40
2019-05-01T15:35:39.499Z,67.80
2019-05-01T15:38:43.777Z,65.10
2019-05-01T15:41:56.085Z,67.47
2019-05-01T15:45:00.489Z,70.03
2019-05-01T15:48:04.881Z,67.72
2019-05-01T15:51:09.227Z,70.75
2019-05-01T15:54:13.458Z,68.05
2019-05-01T15:58:21.907Z,66.77
2019-05-01T16:01:26.238Z,69.20
2019-05-01T16:04:30.659Z,68.92
2019-05-01T16:07:34.939Z,67.10
2019-05-01T16:10:47.010Z,70.30
2019-05-01T16:13:51.316Z,70.00
2019-05-01T16:16:55.725Z,70.55
2019-05-01T16:20:00.017Z,66.92
2019-05-01T16:23:04.490Z,67.65
2019-05-01T16:26:09.787Z,65.22
2019-05-01T16:29:14.292Z,65.28
2019-05-01T16:32:18.631Z,67.05
2019-05-01T16:35:23.336Z,63.87
2019-05-01T16:38:48.866Z,66.85
2019-05-01T16:41:53.401Z,66.92
2019-05-01T16:44:57.691Z,67.08
2019-05-01T16:48:02.090Z,66.57
2019-05-01T16:51:06.475Z,64.75
2019-05-01T16:54:10.894Z,64.30
2019-05-01T16:57:15.562Z,65.92
2019-05-01T17:00:23.675Z,63.70
2019-05-01T17:03:47.258Z,64.50
2019-05-01T17:07:15.868Z,66.50
2019-05-01T17:10:25.225Z,64.97
2019-05-01T17:13:31.687Z,67.40
2019-05-01T17:16:36.072Z,67.40
2019-05-01T17:19:40.458Z,67.42
2019-05-01T17:22:46.242Z,63.95
2019-05-01T17:25:51.134Z,67.27
2019-05-01T17:28:55.638Z,67.53
2019-05-01T17:32:00.242Z,68.12
2019-05-01T17:35:06.692Z,66.80
2019-05-01T17:38:10.982Z,67.92
2019-05-01T17:41:15.274Z,69.53
2019-05-01T17:44:20.104Z,68.28
2019-05-01T17:47:27.013Z,67.42
2019-05-01T17:50:31.447Z,67.67
2019-05-01T17:53:35.737Z,65.37
2019-05-01T17:56:40.111Z,64.60
2019-05-01T17:59:46.026Z,64.27
2019-05-01T18:02:58.232Z,65.55
2019-05-01T18:06:23.835Z,63.30
2019-05-01T18:09:28.215Z,62.43
2019-05-01T18:12:32.753Z,63.02
2019-05-01T18:15:37.129Z,64.20
2019-05-01T18:18:41.483Z,64.00
2019-05-01T18:21:51.781Z,62.62
2019-05-01T18:25:17.911Z,61.18
2019-05-01T18:28:34.379Z,61.50
2019-05-01T18:31:38.719Z,61.15
2019-05-01T18:34:43.365Z,60.20
2019-05-01T18:37:55.635Z,59.93
2019-05-01T18:41:06.267Z,61.40
2019-05-01T18:44:11.429Z,57.78
2019-05-01T18:47:16.093Z,59.42
2019-05-01T18:50:20.524Z,58.63
2019-05-01T18:53:24.964Z,56.37
2019-05-01T18:56:29.422Z,54.15
2019-05-01T18:59:33.875Z,53.73
2019-05-01T19:02:39.013Z,50.12
2019-05-01T19:05:47.008Z,49.58
2019-05-01T19:08:50.018Z,44.60
2019-05-01T19:11:54.724Z,42.05
2019-05-01T19:15:00.295Z,41.33
2019-05-01T19:18:05.574Z,38.90
2019-05-01T19:21:10.322Z,38.38
2019-05-01T19:24:14.951Z,36.68
2019-05-01T19:27:20.856Z,35.95
2019-05-01T19:30:25.397Z,35.38
2019-05-01T19:33:29.751Z,35.90
2019-05-01T19:36:34.170Z,35.92
2019-05-01T19:39:43.841Z,36.65
2019-05-01T19:42:44.796Z,37.38
2019-05-01T19:45:49.019Z,37.98
2019-05-01T19:48:53.404Z,36.38
2019-05-01T19:52:00.597Z,35.60
2019-05-01T19:55:06.437Z,36.70
2019-05-01T19:58:10.419Z,37.83
2019-05-01T20:01:14.775Z,36.77
2019-05-01T20:04:19.041Z,39.30
2019-05-01T20:07:23.531Z,38.85
2019-05-01T20:10:27.961Z,37.17
2019-05-01T20:13:32.257Z,38.42
2019-05-01T20:16:36.597Z,38.55
2019-05-01T20:19:40.940Z,38.45
2019-05-01T20:22:48.088Z,37.23
2019-05-01T20:25:55.815Z,37.45
2019-05-01T20:29:00.262Z,37.00
2019-05-01T20:32:03.548Z,38.48
2019-05-01T20:35:08.008Z,37.55
2019-05-01T20:38:15.226Z,37.30
2019-05-01T20:41:19.512Z,36.88
2019-05-01T20:44:25.842Z,37.35
2019-05-01T20:47:35.216Z,35.25
2019-05-01T20:50:35.871Z,39.63
2019-05-01T20:53:40.221Z,38.60
2019-05-01T20:56:53.319Z,39.15
2019-05-01T20:59:57.671Z,37.88
2019-05-01T21:03:02.080Z,37.20
2019-05-01T21:06:28.001Z,36.25
2019-05-01T21:09:46.685Z,37.15
2019-05-01T21:12:41.042Z,38.13
2019-05-01T21:15:47.244Z,38.02
2019-05-01T21:18:51.484Z,37.17
2019-05-01T21:21:55.741Z,37.30
2019-05-01T21:24:59.969Z,37.15
2019-05-01T21:28:04.417Z,38.17
2019-05-01T21:31:08.700Z,37.88
2019-05-01T21:34:14.525Z,36.33
2019-05-01T21:37:19.105Z,36.38
2019-05-01T21:40:23.427Z,36.25
2019-05-01T21:43:27.847Z,38.35
2019-05-01T21:46:34.084Z,36.25
2019-05-01T21:49:38.340Z,37.88
2019-05-01T21:52:43.736Z,36.65
2019-05-01T21:55:48.119Z,36.85
2019-05-01T21:58:52.439Z,37.05
2019-05-01T22:01:56.759Z,37.28
2019-05-01T22:05:03.847Z,36.30
2019-05-01T22:08:07.171Z,35.03
2019-05-01T22:11:11.614Z,34.08
2019-05-01T22:14:31.071Z,33.53
2019-05-01T22:17:54.911Z,37.50
2019-05-01T22:21:09.682Z,36.20
2019-05-01T22:24:27.828Z,35.58
2019-05-01T22:27:36.900Z,37.03
2019-05-01T22:31:06.253Z,35.48
2019-05-01T22:34:29.622Z,36.98
2019-05-01T22:37:37.050Z,36.58
2019-05-01T22:41:05.978Z,36.68
2019-05-01T22:44:01.406Z,36.25
2019-05-01T22:47:05.713Z,36.60
2019-05-01T22:50:11.975Z,36.05
2019-05-01T22:53:16.256Z,36.60
2019-05-01T22:56:20.658Z,35.58
2019-05-01T22:59:24.948Z,35.48
2019-05-01T23:02:35.892Z,37.78
2019-05-01T23:05:40.277Z,37.80
2019-05-01T23:08:47.608Z,37.88
2019-05-01T23:11:51.921Z,37.42
2019-05-01T23:14:56.410Z,37.60
2019-05-01T23:18:00.849Z,38.65
2019-05-01T23:21:05.326Z,41.37
2019-05-01T23:24:09.678Z,38.55
2019-05-01T23:27:14.013Z,41.20
2019-05-01T23:30:21.033Z,40.50
2019-05-01T23:33:25.289Z,39.78
2019-05-01T23:36:29.648Z,41.13
2019-05-01T23:39:39.683Z,42.78
2019-05-01T23:42:43.340Z,40.43
2019-05-01T23:45:45.855Z,40.50
2019-05-01T23:48:50.078Z,42.45
2019-05-01T23:51:54.390Z,40.98
2019-05-01T23:54:58.666Z,39.53
2019-05-01T23:58:02.933Z,39.90
